Hanover, Maine
Current Conditions -  °F | °C
As of 4:52 PM on Thursday 23 Oct 2014 (Local Time) from KBML Reporting Station
Light Rain Light Rain  
Wind Chill: 43°   Ceiling: 1300
Heat Index: 47°   Visibility: 10mi
Dew Point: 45°   Wind: 9mph
Humidity: 93%   Direction: 350°N
Pressure: 29.83"   Gusts: NA
Location:  44.5°N, 70.69°W
Report Text: KBML 232052Z AUTO 35008KT 10SM -RA BKN013 BKN022 OVC035 08/07 A2983 RMK AO2 SLP107 P0005 60008 T00830072 58007
Loading
Personal Weather Stations






























Interactive Weather Map
Tropical Storm Tracking
New forecast layout! Learn more

10-Day Weather Forecast

Advertisements
Track Severe Weather on mobile